sensor_id;sensor_type;location;lat;lon;timestamp;pressure;altitude;pressure_sealevel;temperature;humidity
21574;BME280;10948;48.706;9.258;2023-03-21T00:01:00;98015.34;;;9.17;100.00
21574;BME280;10948;48.706;9.258;2023-03-21T00:03:28;98013.34;;;9.22;100.00
21574;BME280;10948;48.706;9.258;2023-03-21T00:05:53;98015.19;;;9.20;100.00
21574;BME280;10948;48.706;9.258;2023-03-21T00:08:19;98012.56;;;9.03;100.00
21574;BME280;10948;48.706;9.258;2023-03-21T00:10:45;98012.56;;;9.03;100.00
21574;BME280;10948;48.706;9.258;2023-03-21T00:13:11;98013.22;;;8.91;100.00
21574;BME280;10948;48.706;9.258;2023-03-21T00:15:37;98011.81;;;9.18;100.00
21574;BME280;10948;48.706;9.258;2023-03-21T00:18:17;98009.53;;;9.12;100.00
21574;BME280;10948;48.706;9.258;2023-03-21T00:20:59;98003.59;;;9.10;100.00
21574;BME280;10948;48.706;9.258;2023-03-21T00:23:25;98015.28;;;9.02;100.00
21574;BME280;10948;48.706;9.258;2023-03-21T00:25:50;98003.72;;;9.07;100.00
21574;BME280;10948;48.706;9.258;2023-03-21T00:28:16;98003.34;;;8.98;100.00
21574;BME280;10948;48.706;9.258;2023-03-21T00:30:41;97997.34;;;8.97;100.00
21574;BME280;10948;48.706;9.258;2023-03-21T00:33:06;97995.09;;;8.90;100.00
21574;BME280;10948;48.706;9.258;2023-03-21T00:35:31;97996.31;;;9.00;100.00
21574;BME280;10948;48.706;9.258;2023-03-21T00:37:56;97997.00;;;9.03;100.00
21574;BME280;10948;48.706;9.258;2023-03-21T00:40:22;97988.47;;;9.01;100.00
21574;BME280;10948;48.706;9.258;2023-03-21T00:42:47;97986.34;;;8.92;100.00
21574;BME280;10948;48.706;9.258;2023-03-21T00:45:12;97992.97;;;8.98;100.00
21574;BME280;10948;48.706;9.258;2023-03-21T00:47:37;97983.28;;;9.01;100.00
21574;BME280;10948;48.706;9.258;2023-03-21T00:50:03;97979.22;;;9.13;100.00
21574;BME280;10948;48.706;9.258;2023-03-21T00:52:29;97969.19;;;9.22;100.00
21574;BME280;10948;48.706;9.258;2023-03-21T00:54:54;97963.25;;;9.20;100.00
21574;BME280;10948;48.706;9.258;2023-03-21T00:57:19;97964.13;;;9.36;100.00
21574;BME280;10948;48.706;9.258;2023-03-21T00:59:45;97973.69;;;9.36;100.00
21574;BME280;10948;48.706;9.258;2023-03-21T01:02:10;97967.38;;;9.24;100.00
21574;BME280;10948;48.706;9.258;2023-03-21T01:04:38;97954.41;;;9.40;100.00
21574;BME280;10948;48.706;9.258;2023-03-21T01:07:04;97957.88;;;9.40;100.00
21574;BME280;10948;48.706;9.258;2023-03-21T01:09:29;97960.28;;;9.11;100.00
21574;BME280;10948;48.706;9.258;2023-03-21T01:11:54;97961.44;;;9.05;100.00
21574;BME280;10948;48.706;9.258;2023-03-21T01:14:20;97966.63;;;9.05;100.00
21574;BME280;10948;48.706;9.258;2023-03-21T01:16:46;97960.91;;;9.16;100.00
21574;BME280;10948;48.706;9.258;2023-03-21T01:19:13;97967.22;;;9.27;100.00
21574;BME280;10948;48.706;9.258;2023-03-21T01:21:38;97960.63;;;9.37;100.00
21574;BME280;10948;48.706;9.258;2023-03-21T01:24:04;97957.25;;;9.35;100.00
21574;BME280;10948;48.706;9.258;2023-03-21T01:26:29;97964.63;;;9.27;100.00
21574;BME280;10948;48.706;9.258;2023-03-21T01:28:54;97949.22;;;9.40;100.00
21574;BME280;10948;48.706;9.258;2023-03-21T01:31:20;97960.53;;;9.06;100.00
21574;BME280;10948;48.706;9.258;2023-03-21T01:33:45;97955.94;;;9.11;100.00
21574;BME280;10948;48.706;9.258;2023-03-21T01:36:21;97953.09;;;9.48;100.00
21574;BME280;10948;48.706;9.258;2023-03-21T01:38:46;97957.63;;;9.45;100.00
21574;BME280;10948;48.706;9.258;2023-03-21T01:43:49;97959.13;;;9.16;100.00
21574;BME280;10948;48.706;9.258;2023-03-21T01:49:08;97949.53;;;9.01;100.00
21574;BME280;10948;48.706;9.258;2023-03-21T01:51:36;97948.78;;;8.99;100.00
21574;BME280;10948;48.706;9.258;2023-03-21T01:54:02;97947.69;;;9.03;100.00
21574;BME280;10948;48.706;9.258;2023-03-21T01:56:30;97941.84;;;9.32;100.00
21574;BME280;10948;48.706;9.258;2023-03-21T01:59:39;97945.50;;;9.28;100.00
21574;BME280;10948;48.706;9.258;2023-03-21T02:01:46;97938.75;;;9.09;100.00
21574;BME280;10948;48.706;9.258;2023-03-21T02:04:11;97943.84;;;9.27;100.00
21574;BME280;10948;48.706;9.258;2023-03-21T02:09:21;97933.31;;;9.30;100.00
21574;BME280;10948;48.706;9.258;2023-03-21T02:11:47;97935.75;;;9.16;100.00
21574;BME280;10948;48.706;9.258;2023-03-21T02:14:14;97932.59;;;9.11;100.00
21574;BME280;10948;48.706;9.258;2023-03-21T02:29:27;97926.59;;;9.26;100.00
21574;BME280;10948;48.706;9.258;2023-03-21T02:32:04;97918.88;;;9.25;100.00
21574;BME280;10948;48.706;9.258;2023-03-21T02:37:14;97909.91;;;9.15;100.00
21574;BME280;10948;48.706;9.258;2023-03-21T02:42:11;97920.97;;;9.18;100.00
21574;BME280;10948;48.706;9.258;2023-03-21T02:44:42;97916.75;;;9.16;100.00
21574;BME280;10948;48.706;9.258;2023-03-21T02:49:36;97909.03;;;9.14;100.00
21574;BME280;10948;48.706;9.258;2023-03-21T02:52:07;97909.97;;;9.13;100.00
21574;BME280;10948;48.706;9.258;2023-03-21T02:54:33;97904.16;;;9.08;100.00
21574;BME280;10948;48.706;9.258;2023-03-21T02:56:59;97907.38;;;8.96;100.00
21574;BME280;10948;48.706;9.258;2023-03-21T02:59:27;97902.66;;;9.04;100.00
21574;BME280;10948;48.706;9.258;2023-03-21T03:01:53;97898.91;;;9.10;100.00
21574;BME280;10948;48.706;9.258;2023-03-21T03:04:21;97895.47;;;9.09;100.00
21574;BME280;10948;48.706;9.258;2023-03-21T03:09:23;97911.97;;;9.08;100.00
21574;BME280;10948;48.706;9.258;2023-03-21T03:11:58;97912.56;;;8.96;100.00
21574;BME280;10948;48.706;9.258;2023-03-21T03:14:33;97909.09;;;8.97;100.00
21574;BME280;10948;48.706;9.258;2023-03-21T03:19:30;97904.09;;;9.10;100.00
21574;BME280;10948;48.706;9.258;2023-03-21T03:26:52;97909.13;;;9.13;100.00
21574;BME280;10948;48.706;9.258;2023-03-21T03:29:20;97911.75;;;8.96;100.00
21574;BME280;10948;48.706;9.258;2023-03-21T03:31:50;97914.59;;;8.91;100.00
21574;BME280;10948;48.706;9.258;2023-03-21T03:34:18;97910.84;;;8.97;100.00
21574;BME280;10948;48.706;9.258;2023-03-21T03:36:45;97913.75;;;8.91;100.00
21574;BME280;10948;48.706;9.258;2023-03-21T03:39:12;97911.69;;;8.97;100.00
21574;BME280;10948;48.706;9.258;2023-03-21T03:41:45;97908.91;;;9.00;100.00
21574;BME280;10948;48.706;9.258;2023-03-21T03:44:10;97904.59;;;9.16;100.00
21574;BME280;10948;48.706;9.258;2023-03-21T03:46:56;97908.25;;;8.97;100.00
21574;BME280;10948;48.706;9.258;2023-03-21T03:49:23;97893.66;;;8.94;100.00
21574;BME280;10948;48.706;9.258;2023-03-21T03:54:16;97883.56;;;9.05;100.00
21574;BME280;10948;48.706;9.258;2023-03-21T03:56:43;97880.13;;;9.05;100.00
21574;BME280;10948;48.706;9.258;2023-03-21T03:59:08;97880.66;;;9.11;100.00
21574;BME280;10948;48.706;9.258;2023-03-21T04:01:34;97883.25;;;9.11;100.00
21574;BME280;10948;48.706;9.258;2023-03-21T04:03:59;97878.25;;;8.91;100.00
21574;BME280;10948;48.706;9.258;2023-03-21T04:06:25;97880.72;;;8.77;100.00
21574;BME280;10948;48.706;9.258;2023-03-21T04:08:52;97886.16;;;9.05;100.00
21574;BME280;10948;48.706;9.258;2023-03-21T04:11:18;97879.63;;;8.98;100.00
21574;BME280;10948;48.706;9.258;2023-03-21T04:13:43;97873.50;;;8.99;100.00
21574;BME280;10948;48.706;9.258;2023-03-21T04:16:09;97881.00;;;8.88;100.00
21574;BME280;10948;48.706;9.258;2023-03-21T04:18:35;97877.22;;;8.78;100.00
21574;BME280;10948;48.706;9.258;2023-03-21T04:21:05;97872.91;;;8.94;100.00
21574;BME280;10948;48.706;9.258;2023-03-21T04:23:31;97870.53;;;8.90;100.00
21574;BME280;10948;48.706;9.258;2023-03-21T04:25:57;97878.81;;;8.81;100.00
21574;BME280;10948;48.706;9.258;2023-03-21T04:28:22;97871.84;;;8.81;100.00
21574;BME280;10948;48.706;9.258;2023-03-21T04:30:48;97876.41;;;8.93;100.00
21574;BME280;10948;48.706;9.258;2023-03-21T04:33:14;97883.16;;;8.80;100.00
21574;BME280;10948;48.706;9.258;2023-03-21T04:35:39;97881.72;;;8.75;100.00
21574;BME280;10948;48.706;9.258;2023-03-21T04:38:06;97887.72;;;8.75;100.00
21574;BME280;10948;48.706;9.258;2023-03-21T04:40:31;97887.03;;;8.72;100.00
21574;BME280;10948;48.706;9.258;2023-03-21T04:42:56;97888.44;;;8.62;100.00
21574;BME280;10948;48.706;9.258;2023-03-21T04:45:25;97879.75;;;8.63;100.00
21574;BME280;10948;48.706;9.258;2023-03-21T04:47:50;97879.28;;;8.55;100.00
21574;BME280;10948;48.706;9.258;2023-03-21T04:50:15;97878.31;;;8.57;100.00
21574;BME280;10948;48.706;9.258;2023-03-21T04:52:41;97877.31;;;8.43;100.00
21574;BME280;10948;48.706;9.258;2023-03-21T04:55:06;97879.97;;;8.24;100.00
21574;BME280;10948;48.706;9.258;2023-03-21T04:57:34;97881.19;;;8.34;100.00
21574;BME280;10948;48.706;9.258;2023-03-21T04:59:59;97879.00;;;8.08;100.00
21574;BME280;10948;48.706;9.258;2023-03-21T05:02:24;97885.03;;;8.09;100.00
21574;BME280;10948;48.706;9.258;2023-03-21T05:04:49;97875.38;;;7.94;100.00
21574;BME280;10948;48.706;9.258;2023-03-21T05:07:15;97879.28;;;8.02;100.00
21574;BME280;10948;48.706;9.258;2023-03-21T05:09:40;97879.66;;;7.95;100.00
21574;BME280;10948;48.706;9.258;2023-03-21T05:12:05;97878.22;;;7.71;100.00
21574;BME280;10948;48.706;9.258;2023-03-21T05:14:30;97879.16;;;7.87;100.00
21574;BME280;10948;48.706;9.258;2023-03-21T05:16:56;97875.94;;;8.00;100.00
21574;BME280;10948;48.706;9.258;2023-03-21T05:19:23;97875.13;;;7.81;100.00
21574;BME280;10948;48.706;9.258;2023-03-21T05:21:48;97878.63;;;7.80;100.00
21574;BME280;10948;48.706;9.258;2023-03-21T05:24:15;97885.03;;;7.90;100.00
21574;BME280;10948;48.706;9.258;2023-03-21T05:26:41;97887.78;;;7.87;100.00
21574;BME280;10948;48.706;9.258;2023-03-21T05:29:07;97887.50;;;7.93;100.00
21574;BME280;10948;48.706;9.258;2023-03-21T05:31:32;97886.88;;;7.88;100.00
21574;BME280;10948;48.706;9.258;2023-03-21T05:33:57;97888.44;;;7.74;100.00
21574;BME280;10948;48.706;9.258;2023-03-21T05:36:23;97899.28;;;7.82;100.00
21574;BME280;10948;48.706;9.258;2023-03-21T05:38:48;97896.28;;;7.72;100.00
21574;BME280;10948;48.706;9.258;2023-03-21T05:41:14;97900.41;;;7.95;100.00
21574;BME280;10948;48.706;9.258;2023-03-21T05:43:40;97892.78;;;8.44;100.00
21574;BME280;10948;48.706;9.258;2023-03-21T05:46:05;97899.78;;;8.42;100.00
21574;BME280;10948;48.706;9.258;2023-03-21T05:48:30;97900.72;;;8.24;100.00
21574;BME280;10948;48.706;9.258;2023-03-21T05:50:55;97897.00;;;7.93;100.00
21574;BME280;10948;48.706;9.258;2023-03-21T05:53:21;97897.88;;;7.93;100.00
21574;BME280;10948;48.706;9.258;2023-03-21T05:55:46;97893.03;;;8.04;100.00
21574;BME280;10948;48.706;9.258;2023-03-21T05:58:11;97897.34;;;8.22;100.00
21574;BME280;10948;48.706;9.258;2023-03-21T06:00:37;97899.94;;;8.39;100.00
21574;BME280;10948;48.706;9.258;2023-03-21T06:03:02;97899.50;;;8.48;100.00
21574;BME280;10948;48.706;9.258;2023-03-21T06:05:27;97903.47;;;8.38;100.00
21574;BME280;10948;48.706;9.258;2023-03-21T06:07:52;97892.94;;;8.41;100.00
21574;BME280;10948;48.706;9.258;2023-03-21T06:10:18;97897.38;;;8.39;100.00
21574;BME280;10948;48.706;9.258;2023-03-21T06:12:43;97897.13;;;8.44;100.00
21574;BME280;10948;48.706;9.258;2023-03-21T06:15:08;97897.50;;;8.53;100.00
21574;BME280;10948;48.706;9.258;2023-03-21T06:17:34;97896.91;;;8.65;100.00
21574;BME280;10948;48.706;9.258;2023-03-21T06:19:59;97894.59;;;8.93;100.00
21574;BME280;10948;48.706;9.258;2023-03-21T06:22:26;97895.28;;;8.80;100.00
21574;BME280;10948;48.706;9.258;2023-03-21T06:24:51;97897.50;;;8.87;100.00
21574;BME280;10948;48.706;9.258;2023-03-21T06:27:18;97889.50;;;9.07;100.00
21574;BME280;10948;48.706;9.258;2023-03-21T06:29:43;97900.69;;;8.92;100.00
21574;BME280;10948;48.706;9.258;2023-03-21T06:32:09;97896.00;;;9.16;100.00
21574;BME280;10948;48.706;9.258;2023-03-21T06:34:35;97899.78;;;9.26;100.00
21574;BME280;10948;48.706;9.258;2023-03-21T06:37:00;97891.72;;;9.15;100.00
21574;BME280;10948;48.706;9.258;2023-03-21T06:39:26;97890.88;;;9.14;100.00
21574;BME280;10948;48.706;9.258;2023-03-21T06:41:51;97892.53;;;9.15;100.00
21574;BME280;10948;48.706;9.258;2023-03-21T06:44:16;97887.72;;;9.25;100.00
21574;BME280;10948;48.706;9.258;2023-03-21T06:46:41;97889.59;;;9.38;100.00
21574;BME280;10948;48.706;9.258;2023-03-21T06:49:07;97894.31;;;9.63;100.00
21574;BME280;10948;48.706;9.258;2023-03-21T06:51:32;97891.63;;;9.64;100.00
21574;BME280;10948;48.706;9.258;2023-03-21T06:53:57;97887.25;;;9.96;100.00
21574;BME280;10948;48.706;9.258;2023-03-21T06:56:22;97886.34;;;10.57;100.00
21574;BME280;10948;48.706;9.258;2023-03-21T06:58:48;97881.03;;;11.44;100.00
21574;BME280;10948;48.706;9.258;2023-03-21T07:01:13;97884.91;;;12.32;100.00
21574;BME280;10948;48.706;9.258;2023-03-21T07:03:38;97881.41;;;13.22;100.00
21574;BME280;10948;48.706;9.258;2023-03-21T07:06:07;97878.66;;;13.61;91.67
21574;BME280;10948;48.706;9.258;2023-03-21T07:08:36;97886.03;;;13.06;92.76
21574;BME280;10948;48.706;9.258;2023-03-21T07:11:01;97880.75;;;14.28;91.30
21574;BME280;10948;48.706;9.258;2023-03-21T07:13:26;97874.91;;;15.61;81.04
21574;BME280;10948;48.706;9.258;2023-03-21T07:15:51;97870.91;;;16.93;69.85
21574;BME280;10948;48.706;9.258;2023-03-21T07:18:17;97881.00;;;16.26;69.03
21574;BME280;10948;48.706;9.258;2023-03-21T07:20:45;97871.63;;;17.66;65.04
21574;BME280;10948;48.706;9.258;2023-03-21T07:23:12;97875.31;;;16.10;66.23
21574;BME280;10948;48.706;9.258;2023-03-21T07:25:37;97870.63;;;16.87;67.27
21574;BME280;10948;48.706;9.258;2023-03-21T07:28:03;97866.72;;;17.52;62.65
21574;BME280;10948;48.706;9.258;2023-03-21T07:30:33;97867.69;;;18.87;59.93
21574;BME280;10948;48.706;9.258;2023-03-21T07:32:58;97862.78;;;19.11;56.13
21574;BME280;10948;48.706;9.258;2023-03-21T07:35:23;97865.88;;;19.89;53.96
21574;BME280;10948;48.706;9.258;2023-03-21T07:37:49;97864.44;;;19.12;55.35
21574;BME280;10948;48.706;9.258;2023-03-21T07:40:14;97872.88;;;19.71;56.27
21574;BME280;10948;48.706;9.258;2023-03-21T07:42:40;97872.34;;;19.12;54.46
21574;BME280;10948;48.706;9.258;2023-03-21T07:45:06;97881.06;;;16.78;60.34
21574;BME280;10948;48.706;9.258;2023-03-21T07:47:31;97881.00;;;16.26;64.94
21574;BME280;10948;48.706;9.258;2023-03-21T07:49:57;97878.84;;;16.42;64.62
21574;BME280;10948;48.706;9.258;2023-03-21T07:52:22;97875.88;;;15.49;65.56
21574;BME280;10948;48.706;9.258;2023-03-21T07:54:47;97875.16;;;15.69;68.36
21574;BME280;10948;48.706;9.258;2023-03-21T07:57:13;97877.41;;;15.73;67.51
21574;BME280;10948;48.706;9.258;2023-03-21T07:59:38;97865.59;;;16.64;65.28
21574;BME280;10948;48.706;9.258;2023-03-21T08:02:03;97875.78;;;16.57;62.88
21574;BME280;10948;48.706;9.258;2023-03-21T08:04:28;97876.34;;;15.76;64.83
21574;BME280;10948;48.706;9.258;2023-03-21T08:06:54;97872.25;;;18.76;58.84
21574;BME280;10948;48.706;9.258;2023-03-21T08:09:19;97867.13;;;18.55;56.08
21574;BME280;10948;48.706;9.258;2023-03-21T08:11:45;97879.44;;;20.66;53.90
21574;BME280;10948;48.706;9.258;2023-03-21T08:14:10;97880.31;;;24.72;43.98
21574;BME280;10948;48.706;9.258;2023-03-21T08:16:36;97874.50;;;22.97;42.87
21574;BME280;10948;48.706;9.258;2023-03-21T08:19:02;97874.53;;;22.24;45.23
21574;BME280;10948;48.706;9.258;2023-03-21T08:21:27;97865.13;;;26.12;39.98
21574;BME280;10948;48.706;9.258;2023-03-21T08:23:52;97864.72;;;25.43;40.00
21574;BME280;10948;48.706;9.258;2023-03-21T08:26:18;97859.53;;;26.99;39.02
21574;BME280;10948;48.706;9.258;2023-03-21T08:28:43;97867.50;;;28.37;36.43
21574;BME280;10948;48.706;9.258;2023-03-21T08:31:09;97867.34;;;29.57;34.33
21574;BME280;10948;48.706;9.258;2023-03-21T08:33:35;97862.34;;;29.80;34.16
21574;BME280;10948;48.706;9.258;2023-03-21T08:36:01;97863.19;;;29.67;34.52
21574;BME280;10948;48.706;9.258;2023-03-21T08:38:26;97865.84;;;31.67;32.56
21574;BME280;10948;48.706;9.258;2023-03-21T08:40:57;97865.63;;;32.11;32.02
21574;BME280;10948;48.706;9.258;2023-03-21T08:43:24;97863.78;;;31.21;31.21
21574;BME280;10948;48.706;9.258;2023-03-21T08:45:50;97864.25;;;32.74;31.48
21574;BME280;10948;48.706;9.258;2023-03-21T08:48:15;97856.59;;;33.53;30.23
21574;BME280;10948;48.706;9.258;2023-03-21T08:50:41;97849.97;;;29.66;33.91
21574;BME280;10948;48.706;9.258;2023-03-21T08:53:06;97847.97;;;32.33;31.20
21574;BME280;10948;48.706;9.258;2023-03-21T08:55:32;97843.22;;;28.38;35.63
21574;BME280;10948;48.706;9.258;2023-03-21T08:57:58;97836.84;;;30.15;34.11
21574;BME280;10948;48.706;9.258;2023-03-21T09:00:24;97831.88;;;27.62;35.70
21574;BME280;10948;48.706;9.258;2023-03-21T09:02:49;97832.34;;;23.18;42.55
21574;BME280;10948;48.706;9.258;2023-03-21T09:05:18;97826.97;;;23.50;42.97
21574;BME280;10948;48.706;9.258;2023-03-21T09:07:44;97830.69;;;23.01;43.65
21574;BME280;10948;48.706;9.258;2023-03-21T09:10:12;97826.22;;;21.63;45.78
21574;BME280;10948;48.706;9.258;2023-03-21T09:12:39;97835.00;;;20.34;48.90
21574;BME280;10948;48.706;9.258;2023-03-21T09:15:05;97836.81;;;20.86;47.53
21574;BME280;10948;48.706;9.258;2023-03-21T09:17:31;97835.56;;;22.16;45.12
21574;BME280;10948;48.706;9.258;2023-03-21T09:19:57;97839.31;;;22.95;44.46
21574;BME280;10948;48.706;9.258;2023-03-21T09:22:25;97832.38;;;22.13;45.23
21574;BME280;10948;48.706;9.258;2023-03-21T09:24:50;97842.00;;;23.19;44.71
21574;BME280;10948;48.706;9.258;2023-03-21T09:27:15;97841.97;;;23.03;43.30
21574;BME280;10948;48.706;9.258;2023-03-21T09:29:49;97837.75;;;21.79;45.77
21574;BME280;10948;48.706;9.258;2023-03-21T09:32:15;97838.97;;;22.98;44.54
21574;BME280;10948;48.706;9.258;2023-03-21T09:34:42;97832.50;;;22.69;44.43
21574;BME280;10948;48.706;9.258;2023-03-21T09:37:07;97837.75;;;23.57;44.00
21574;BME280;10948;48.706;9.258;2023-03-21T09:39:39;97831.31;;;21.56;43.79
21574;BME280;10948;48.706;9.258;2023-03-21T09:42:19;97831.28;;;21.48;43.83
21574;BME280;10948;48.706;9.258;2023-03-21T09:47:27;97826.19;;;22.62;43.79
21574;BME280;10948;48.706;9.258;2023-03-21T09:50:09;97827.53;;;22.82;44.58
21574;BME280;10948;48.706;9.258;2023-03-21T09:52:44;97823.69;;;22.92;43.87
21574;BME280;10948;48.706;9.258;2023-03-21T09:55:31;97822.72;;;21.96;43.88
21574;BME280;10948;48.706;9.258;2023-03-21T10:00:44;97812.97;;;25.23;39.92
21574;BME280;10948;48.706;9.258;2023-03-21T10:05:42;97809.56;;;25.87;38.54
21574;BME280;10948;48.706;9.258;2023-03-21T10:10:35;97810.88;;;23.44;40.70
21574;BME280;10948;48.706;9.258;2023-03-21T10:13:01;97809.56;;;24.47;39.68
21574;BME280;10948;48.706;9.258;2023-03-21T10:15:27;97804.53;;;26.27;37.55
21574;BME280;10948;48.706;9.258;2023-03-21T10:17:59;97797.38;;;24.97;38.68
21574;BME280;10948;48.706;9.258;2023-03-21T10:20:29;97790.63;;;25.24;38.99
21574;BME280;10948;48.706;9.258;2023-03-21T10:22:55;97797.13;;;23.40;40.33
21574;BME280;10948;48.706;9.258;2023-03-21T10:25:42;97789.63;;;23.90;40.45
21574;BME280;10948;48.706;9.258;2023-03-21T10:28:10;97782.94;;;24.24;39.58
21574;BME280;10948;48.706;9.258;2023-03-21T10:30:40;97778.94;;;25.10;37.76
21574;BME280;10948;48.706;9.258;2023-03-21T10:33:07;97776.28;;;25.97;37.78
21574;BME280;10948;48.706;9.258;2023-03-21T10:35:35;97777.94;;;27.52;35.70
21574;BME280;10948;48.706;9.258;2023-03-21T10:38:02;97774.69;;;27.29;35.09
21574;BME280;10948;48.706;9.258;2023-03-21T10:40:27;97777.22;;;25.75;36.06
21574;BME280;10948;48.706;9.258;2023-03-21T10:42:56;97785.16;;;23.91;38.10
21574;BME280;10948;48.706;9.258;2023-03-21T10:45:38;97772.41;;;24.31;37.94
21574;BME280;10948;48.706;9.258;2023-03-21T10:48:05;97781.59;;;23.60;38.53
21574;BME280;10948;48.706;9.258;2023-03-21T10:50:31;97771.91;;;23.28;39.36
21574;BME280;10948;48.706;9.258;2023-03-21T10:52:56;97770.34;;;24.86;38.97
21574;BME280;10948;48.706;9.258;2023-03-21T10:55:28;97764.16;;;25.22;38.90
21574;BME280;10948;48.706;9.258;2023-03-21T10:57:56;97773.09;;;24.55;39.04
21574;BME280;10948;48.706;9.258;2023-03-21T11:00:24;97769.78;;;23.24;39.56
21574;BME280;10948;48.706;9.258;2023-03-21T11:02:50;97779.78;;;23.60;39.70
21574;BME280;10948;48.706;9.258;2023-03-21T11:07:42;97771.94;;;22.96;40.74
21574;BME280;10948;48.706;9.258;2023-03-21T11:10:11;97766.94;;;23.17;40.07
21574;BME280;10948;48.706;9.258;2023-03-21T11:12:39;97772.28;;;22.85;41.00
21574;BME280;10948;48.706;9.258;2023-03-21T11:17:45;97762.31;;;22.15;41.86
21574;BME280;10948;48.706;9.258;2023-03-21T11:20:15;97756.63;;;21.19;43.20
21574;BME280;10948;48.706;9.258;2023-03-21T11:22:43;97754.94;;;21.10;42.19
21574;BME280;10948;48.706;9.258;2023-03-21T11:25:10;97754.19;;;22.25;41.48
21574;BME280;10948;48.706;9.258;2023-03-21T11:27:50;97745.78;;;22.61;40.56
21574;BME280;10948;48.706;9.258;2023-03-21T11:30:20;97749.84;;;22.08;40.69
21574;BME280;10948;48.706;9.258;2023-03-21T11:32:49;97751.91;;;21.05;41.13
21574;BME280;10948;48.706;9.258;2023-03-21T11:35:17;97741.06;;;21.16;42.70
21574;BME280;10948;48.706;9.258;2023-03-21T11:37:45;97743.44;;;20.76;43.23
21574;BME280;10948;48.706;9.258;2023-03-21T11:40:22;97735.41;;;21.11;42.95
21574;BME280;10948;48.706;9.258;2023-03-21T11:42:48;97732.78;;;21.45;43.31
21574;BME280;10948;48.706;9.258;2023-03-21T11:45:18;97734.97;;;20.90;43.38
21574;BME280;10948;48.706;9.258;2023-03-21T11:47:43;97723.53;;;21.15;43.39
21574;BME280;10948;48.706;9.258;2023-03-21T11:50:22;97734.78;;;21.17;44.11
21574;BME280;10948;48.706;9.258;2023-03-21T11:53:11;97729.41;;;21.01;43.78
21574;BME280;10948;48.706;9.258;2023-03-21T12:00:46;97711.75;;;20.59;43.86
21574;BME280;10948;48.706;9.258;2023-03-21T12:06:00;97703.25;;;20.47;44.36
21574;BME280;10948;48.706;9.258;2023-03-21T12:13:53;97702.09;;;20.07;44.15
21574;BME280;10948;48.706;9.258;2023-03-21T12:21:34;97685.47;;;19.97;43.47
21574;BME280;10948;48.706;9.258;2023-03-21T12:24:08;97682.22;;;20.20;43.10
21574;BME280;10948;48.706;9.258;2023-03-21T12:29:16;97668.69;;;20.23;43.04
21574;BME280;10948;48.706;9.258;2023-03-21T12:34:20;97670.56;;;19.96;43.70
21574;BME280;10948;48.706;9.258;2023-03-21T12:39:33;97668.63;;;20.15;45.08
21574;BME280;10948;48.706;9.258;2023-03-21T12:45:07;97664.94;;;20.08;43.91
21574;BME280;10948;48.706;9.258;2023-03-21T12:47:35;97663.94;;;20.52;44.27
21574;BME280;10948;48.706;9.258;2023-03-21T12:54:57;97661.84;;;20.38;43.43
21574;BME280;10948;48.706;9.258;2023-03-21T12:57:28;97661.34;;;20.60;42.88
21574;BME280;10948;48.706;9.258;2023-03-21T12:59:57;97661.97;;;20.54;42.90
21574;BME280;10948;48.706;9.258;2023-03-21T13:02:36;97652.06;;;20.56;43.00
21574;BME280;10948;48.706;9.258;2023-03-21T13:07:29;97655.19;;;20.85;42.56
21574;BME280;10948;48.706;9.258;2023-03-21T13:09:57;97653.25;;;20.36;42.51
21574;BME280;10948;48.706;9.258;2023-03-21T13:18:11;97644.09;;;21.07;42.29
21574;BME280;10948;48.706;9.258;2023-03-21T13:23:01;97639.56;;;21.33;41.69
21574;BME280;10948;48.706;9.258;2023-03-21T13:25:28;97635.69;;;21.20;41.85
21574;BME280;10948;48.706;9.258;2023-03-21T13:28:00;97635.16;;;20.83;41.88
21574;BME280;10948;48.706;9.258;2023-03-21T13:30:27;97632.09;;;20.36;42.34
21574;BME280;10948;48.706;9.258;2023-03-21T13:35:58;97628.03;;;20.75;42.54
21574;BME280;10948;48.706;9.258;2023-03-21T13:38:29;97625.13;;;20.86;42.41
21574;BME280;10948;48.706;9.258;2023-03-21T13:43:31;97615.00;;;21.23;41.85
21574;BME280;10948;48.706;9.258;2023-03-21T13:46:04;97614.94;;;20.99;42.26
21574;BME280;10948;48.706;9.258;2023-03-21T13:48:31;97614.03;;;21.24;42.92
21574;BME280;10948;48.706;9.258;2023-03-21T13:51:00;97604.19;;;21.01;42.29
21574;BME280;10948;48.706;9.258;2023-03-21T13:53:35;97601.59;;;20.75;42.14
21574;BME280;10948;48.706;9.258;2023-03-21T13:56:43;97605.53;;;20.71;43.03
21574;BME280;10948;48.706;9.258;2023-03-21T13:58:58;97599.66;;;20.52;42.71
21574;BME280;10948;48.706;9.258;2023-03-21T14:03:59;97595.66;;;19.44;42.96
21574;BME280;10948;48.706;9.258;2023-03-21T14:06:34;97601.16;;;19.86;42.78
21574;BME280;10948;48.706;9.258;2023-03-21T14:09:00;97595.28;;;19.74;42.85
21574;BME280;10948;48.706;9.258;2023-03-21T14:11:27;97599.50;;;19.85;42.19
21574;BME280;10948;48.706;9.258;2023-03-21T14:13:54;97595.25;;;19.92;41.34
21574;BME280;10948;48.706;9.258;2023-03-21T14:16:20;97588.09;;;19.84;41.31
21574;BME280;10948;48.706;9.258;2023-03-21T14:18:53;97587.19;;;19.93;39.95
21574;BME280;10948;48.706;9.258;2023-03-21T14:21:21;97589.63;;;19.69;40.24
21574;BME280;10948;48.706;9.258;2023-03-21T14:23:54;97583.81;;;19.66;39.43
21574;BME280;10948;48.706;9.258;2023-03-21T14:26:19;97578.41;;;19.93;39.19
21574;BME280;10948;48.706;9.258;2023-03-21T14:28:47;97579.06;;;19.69;40.54
21574;BME280;10948;48.706;9.258;2023-03-21T14:31:14;97574.38;;;19.63;39.86
21574;BME280;10948;48.706;9.258;2023-03-21T14:33:41;97569.09;;;19.63;40.50
21574;BME280;10948;48.706;9.258;2023-03-21T14:36:12;97570.97;;;19.88;39.80
21574;BME280;10948;48.706;9.258;2023-03-21T14:38:39;97566.75;;;19.78;40.63
21574;BME280;10948;48.706;9.258;2023-03-21T14:41:05;97567.28;;;19.81;41.41
21574;BME280;10948;48.706;9.258;2023-03-21T14:43:43;97561.75;;;19.75;40.69
21574;BME280;10948;48.706;9.258;2023-03-21T14:46:10;97556.47;;;19.75;40.90
21574;BME280;10948;48.706;9.258;2023-03-21T14:48:36;97561.25;;;19.71;41.22
21574;BME280;10948;48.706;9.258;2023-03-21T14:51:03;97557.41;;;19.66;42.66